This is the latest recevied weather packets stored in our database for station/object KF0WJA. If no packets are shown the sender has not sent any weather packets the latest 10 day(s).
| Time | Temp. | Humidity | Pressure | Rain* | Wind** | Luminosity | Snow |
|---|---|---|---|---|---|---|---|
| 1787600477 | 31.67° C | 57% | 1015.2 hPa | 0 mm | - | 484 W/m² | - |
| 1787600173 | 32.22° C | 57% | 1014.8 hPa | 0 mm | - | 733 W/m² | - |
| 1787599869 | 31.11° C | 57% | 1015.1 hPa | 0 mm | - | 878 W/m² | - |
| 1787599565 | 30.56° C | 60% | 1015.2 hPa | 0 mm | - | 398 W/m² | - |
| 1787599262 | 31.11° C | 58% | 1015.1 hPa | 0 mm | - | 819 W/m² | - |
| 1787598956 | 30° C | 61% | 1015.2 hPa | 0 mm | - | 760 W/m² | - |
| 1787598652 | 30° C | 60% | 1015.5 hPa | 0 mm | - | 188 W/m² | - |
| 1787598352 | 30° C | 60% | 1015.7 hPa | 0 mm | - | 209 W/m² | - |
| 1787598049 | 30° C | 59% | 1015.6 hPa | 0 mm | - | 219 W/m² | - |
| 1787597748 | 30° C | 60% | 1015.7 hPa | 0 mm | - | 313 W/m² | - |
| 1787597447 | 30° C | 61% | 1015.7 hPa | 0 mm | - | 266 W/m² | - |
| 1787597142 | 30° C | 60% | 1015.7 hPa | 0 mm | - | 228 W/m² | - |
| 1787596838 | 30° C | 60% | 1015.5 hPa | 0 mm | - | 273 W/m² | - |
| 1787596533 | 30° C | 60% | 1015.7 hPa | 0 mm | - | 393 W/m² | - |
| 1787596228 | 30° C | 59% | 1015.5 hPa | 0 mm | - | 245 W/m² | - |
| 1787595925 | 30.56° C | 58% | 1015.6 hPa | 0 mm | - | 314 W/m² | - |
| 1787595620 | 30° C | 58% | 1015.6 hPa | 0 mm | - | 375 W/m² | - |
| 1787595316 | 30.56° C | 57% | 1015.6 hPa | 0 mm | - | 334 W/m² | - |
| 1787595015 | 30.56° C | 58% | 1015.6 hPa | 0 mm | - | 461 W/m² | - |
| 1787594710 | 30.56° C | 56% | 1015.6 hPa | 0 mm | - | 722 W/m² | - |
| 1787594409 | 30° C | 58% | 1015.5 hPa | 0 mm | - | 796 W/m² | - |
| 1787594103 | 30.56° C | 57% | 1015.6 hPa | 0 mm | - | 637 W/m² | - |
| 1787593798 | 30° C | 59% | 1015.7 hPa | 0 mm | - | 739 W/m² | - |
| 1787593493 | 29.44° C | 60% | 1016 hPa | 0 mm | - | 574 W/m² | - |
| 1787593189 | 28.89° C | 61% | 1015.8 hPa | 0 mm | - | 472 W/m² | - |
* Rain latest hour (hover to see other rain measurements)
** Current wind speed in m/s (hover to see current wind gust speed)